Time;durP1;ratioP1;P1;durP2;ratioP2;P2;SDS_P1;SDS_P2;PMS_P1;PMS_P2;Temp;Humidity;BMP_temperature;BMP_pressure;BME280_temperature;BME280_humidity;BME280_pressure;Samples;Min_cycle;Max_cycle;Signal;HPM_P1;HPM_P2
2022/05/27 00:01:26;;;;;;;22.13;17.40;;;;;;;13.61;89.32;100745.57;1758635;80;21230;-87
2022/05/27 00:03:56;;;;;;;19.90;17.77;;;;;;;13.59;89.20;100738.25;1758588;81;20923;-87
2022/05/27 00:06:22;;;;;;;18.67;16.70;;;;;;;13.59;89.07;100742.69;1757622;81;21409;-88
2022/05/27 00:08:49;;;;;;;20.10;16.93;;;;;;;13.59;89.08;100745.31;1758597;81;20897;-87
2022/05/27 00:11:16;;;;;;;20.60;17.80;;;;;;;13.57;89.01;100743.27;1758608;80;20919;-87
2022/05/27 00:13:43;;;;;;;18.92;16.67;;;;;;;13.55;88.92;100735.45;1758533;81;21131;-87
2022/05/27 00:16:10;;;;;;;19.32;17.15;;;;;;;13.54;88.82;100739.51;1758669;81;21437;-86
2022/05/27 00:18:37;;;;;;;19.40;16.57;;;;;;;13.50;88.54;100734.95;1749154;81;20901;-85
2022/05/27 00:21:04;;;;;;;20.27;17.30;;;;;;;13.50;88.54;100734.95;1745353;82;20964;-87
2022/05/27 00:23:31;;;;;;;18.90;17.00;;;;;;;13.49;88.40;100737.20;1745372;82;20885;-86
2022/05/27 00:25:58;;;;;;;20.77;16.95;;;;;;;13.44;88.24;100742.80;1745512;81;21867;-85
2022/05/27 00:28:24;;;;;;;23.70;17.70;;;;;;;13.44;88.24;100742.80;1745239;80;21029;-87
2022/05/27 00:30:52;;;;;;;19.55;17.17;;;;;;;13.43;88.00;100739.81;1745012;82;20865;-86
2022/05/27 00:33:19;;;;;;;19.40;17.37;;;;;;;13.41;87.87;100746.14;1744830;82;20933;-86
2022/05/27 00:35:47;;;;;;;20.32;16.55;;;;;;;13.40;87.74;100743.13;1745157;81;20925;-87
2022/05/27 00:38:15;;;;;;;19.60;14.95;;;;;;;13.36;87.64;100737.24;1744893;80;21086;-85
2022/05/27 00:40:48;;;;;;;19.77;15.78;;;;;;;13.35;87.53;100737.34;1744990;82;21033;-87
2022/05/27 00:43:15;;;;;;;18.10;16.20;;;;;;;13.33;87.44;100736.12;1745227;82;21436;-87
2022/05/27 00:45:43;;;;;;;20.72;15.95;;;;;;;13.33;87.30;100736.60;1744933;82;21066;-87
2022/05/27 00:48:18;;;;;;;22.13;15.90;;;;;;;13.31;87.16;100733.23;1745108;81;21393;-87
2022/05/27 00:50:46;;;;;;;19.37;17.10;;;;;;;13.29;87.01;100731.17;1745392;82;21152;-88
2022/05/27 00:53:20;;;;;;;17.90;14.85;;;;;;;13.27;86.88;100736.06;1744914;82;21007;-87
2022/05/27 00:55:51;;;;;;;17.73;15.08;;;;;;;13.24;86.71;100727.52;1745217;80;20939;-87
2022/05/27 00:58:28;;;;;;;18.52;16.05;;;;;;;13.22;86.56;100732.05;1744922;82;20965;-87
2022/05/27 01:00:54;;;;;;;18.42;15.65;;;;;;;13.20;86.43;100733.45;1745025;82;20995;-87
2022/05/27 01:03:21;;;;;;;16.12;14.43;;;;;;;13.18;86.27;100726.13;1734272;82;21138;-87
2022/05/27 01:05:48;;;;;;;18.07;14.50;;;;;;;13.15;86.08;100734.26;1744904;82;20937;-87
2022/05/27 01:08:17;;;;;;;16.57;14.80;;;;;;;13.13;85.93;100730.05;1744962;82;21492;-87
2022/05/27 01:11:15;;;;;;;16.05;14.28;;;;;;;13.10;85.79;100730.27;1744937;82;21054;-84
2022/05/27 01:14:14;;;;;;;14.68;13.05;;;;;;;13.08;85.66;100726.91;1745137;81;21405;-88
2022/05/27 01:17:04;;;;;;;15.13;13.65;;;;;;;13.06;85.48;100728.31;1745292;81;21201;-87
2022/05/27 01:23:03;;;;;;;15.88;13.95;;;;;;;13.00;85.29;100732.67;1755090;81;21014;-86
2022/05/27 01:26:09;;;;;;;15.93;14.33;;;;;;;12.97;85.23;100728.47;1754977;81;21527;-86
2022/05/27 01:28:53;;;;;;;16.50;13.40;;;;;;;12.94;85.16;100727.38;1755227;81;20984;-86
2022/05/27 01:31:47;;;;;;;16.48;14.55;;;;;;;12.91;85.15;100727.56;1754166;81;21177;-86
2022/05/27 01:34:52;;;;;;;17.00;13.25;;;;;;;12.89;85.11;100732.09;1755183;81;20884;-87
2022/05/27 01:37:47;;;;;;;16.15;14.40;;;;;;;12.87;85.26;100730.03;1757040;80;20976;-84
2022/05/27 01:40:57;;;;;;;16.48;14.70;;;;;;;12.87;85.26;100730.03;1757941;81;20948;-85
2022/05/27 01:43:40;;;;;;;15.80;13.32;;;;;;;12.85;84.97;100734.10;1756670;81;21429;-84
2022/05/27 01:46:24;;;;;;;18.15;15.48;;;;;;;12.83;84.94;100740.42;1737006;81;21198;-88
2022/05/27 01:49:13;;;;;;;16.40;13.97;;;;;;;12.82;84.92;100732.14;1755505;80;20932;-87
2022/05/27 01:52:21;;;;;;;16.93;15.13;;;;;;;12.79;84.87;100734.98;1755030;81;20877;-85
2022/05/27 01:55:09;;;;;;;16.77;14.98;;;;;;;12.76;84.85;100737.36;1753377;81;20884;-87
2022/05/27 01:57:59;;;;;;;19.55;15.45;;;;;;;12.73;84.82;100735.39;1755421;80;20925;-87
2022/05/27 02:00:27;;;;;;;19.20;14.65;;;;;;;12.70;84.81;100741.71;1755260;81;21209;-86
2022/05/27 02:03:08;;;;;;;15.13;13.58;;;;;;;12.67;84.84;100742.37;1755465;81;21497;-85
2022/05/27 02:06:01;;;;;;;16.00;14.33;;;;;;;12.61;84.87;100730.02;1754979;81;20912;-88
2022/05/27 02:09:04;;;;;;;16.67;13.98;;;;;;;12.61;84.82;100730.02;1755568;80;20951;-85
2022/05/27 02:11:32;;;;;;;15.78;14.15;;;;;;;12.61;84.75;100727.86;1755368;80;20852;-87
2022/05/27 02:14:25;;;;;;;17.00;13.48;;;;;;;12.60;84.62;100731.42;1755502;81;21251;-86
2022/05/27 02:17:03;;;;;;;18.40;14.77;;;;;;;12.61;84.48;100734.44;1755325;81;21480;-86
2022/05/27 02:19:39;;;;;;;14.95;12.90;;;;;;;12.61;84.31;100735.75;1757426;81;20837;-86
2022/05/27 02:22:23;;;;;;;17.07;13.15;;;;;;;12.61;84.14;100737.91;1758201;80;21425;-86
2022/05/27 02:25:01;;;;;;;14.58;13.08;;;;;;;12.61;83.99;100739.22;1758394;80;21034;-86
2022/05/27 02:27:35;;;;;;;14.15;12.65;;;;;;;12.60;83.81;100739.31;1758064;81;21200;-85
2022/05/27 02:30:11;;;;;;;13.98;12.53;;;;;;;12.61;83.73;100741.85;1758322;81;21350;-86
2022/05/27 02:32:42;;;;;;;13.83;12.40;;;;;;;12.60;83.59;100738.83;1758278;80;20999;-86
2022/05/27 02:35:24;;;;;;;13.78;12.03;;;;;;;12.62;83.41;100741.38;1758254;80;21040;-84
2022/05/27 02:37:54;;;;;;;13.32;10.70;;;;;;;12.61;83.26;100747.59;1758461;81;21159;-87
2022/05/27 02:40:25;;;;;;;13.45;12.03;;;;;;;12.62;83.12;100744.00;1758656;81;21148;-88
2022/05/27 02:43:16;;;;;;;13.93;11.45;;;;;;;12.61;82.92;100741.02;1757439;81;20927;-86
2022/05/27 02:46:13;;;;;;;12.35;11.12;;;;;;;12.62;82.77;100744.84;1758309;81;20869;-88
2022/05/27 02:48:55;;;;;;;12.25;10.03;;;;;;;12.63;82.57;100748.33;1758255;81;20943;-86
2022/05/27 02:51:45;;;;;;;11.78;10.53;;;;;;;12.66;82.22;100736.28;1758264;81;20881;-87
2022/05/27 02:54:21;;;;;;;14.93;8.50;;;;;;;12.68;81.92;100743.60;1757514;80;21233;-86
2022/05/27 02:56:57;;;;;;;10.70;8.80;;;;;;;12.70;81.53;100746.97;1758135;81;20915;-87
2022/05/27 02:59:24;;;;;;;12.07;10.25;;;;;;;12.73;81.16;100741.97;1757825;81;20979;-85
2022/05/27 03:01:51;;;;;;;9.70;8.75;;;;;;;12.76;80.94;100741.31;1758137;81;20929;-87
2022/05/27 03:04:18;;;;;;;10.35;9.43;;;;;;;12.79;80.69;100742.41;1758217;81;20912;-87
2022/05/27 03:07:03;;;;;;;11.63;9.40;;;;;;;12.84;80.53;100739.46;1758246;81;21238;-86
2022/05/27 03:09:55;;;;;;;11.25;9.40;;;;;;;12.88;80.39;100742.26;1660290;86;20917;-87
2022/05/27 03:12:36;;;;;;;9.33;8.48;;;;;;;12.92;80.11;100740.27;1660568;86;20965;-87
2022/05/27 03:15:18;;;;;;;9.63;8.63;;;;;;;12.97;79.92;100738.16;1657771;86;21413;-85
2022/05/27 03:18:02;;;;;;;10.35;8.63;;;;;;;13.00;79.69;100744.52;1660782;86;20976;-87
2022/05/27 03:20:57;;;;;;;8.25;7.45;;;;;;;13.04;79.47;100740.73;1660771;85;21921;-87
2022/05/27 03:24:02;;;;;;;8.78;7.28;;;;;;;13.10;79.30;100744.27;1642528;86;20896;-87
2022/05/27 03:27:23;;;;;;;11.28;7.55;;;;;;;13.17;78.93;100749.96;1660560;85;21107;-87
2022/05/27 03:29:56;;;;;;;7.80;7.00;;;;;;;13.23;78.71;100744.28;1660683;85;20964;-87
2022/05/27 03:32:49;;;;;;;7.25;6.55;;;;;;;13.31;78.33;100745.08;1660884;86;20999;-87
2022/05/27 03:35:42;;;;;;;7.05;6.35;;;;;;;13.34;78.13;100740.45;1660749;85;21139;-84
2022/05/27 03:38:19;;;;;;;6.70;5.57;;;;;;;13.42;77.78;100743.38;1660811;85;20937;-87
2022/05/27 03:40:55;;;;;;;6.97;6.03;;;;;;;13.50;77.31;100751.24;1660672;86;21299;-87
2022/05/27 03:43:22;;;;;;;6.15;5.62;;;;;;;13.57;76.67;100754.64;1660625;86;20970;-86
2022/05/27 03:45:54;;;;;;;7.62;5.53;;;;;;;13.65;76.04;100752.31;1669256;81;20974;-85
2022/05/27 03:48:21;;;;;;;6.53;5.80;;;;;;;13.74;75.68;100746.88;1758269;80;21136;-86
2022/05/27 03:50:51;;;;;;;5.83;4.97;;;;;;;13.82;75.39;100746.30;1758138;80;20885;-87
2022/05/27 03:53:17;;;;;;;6.00;5.40;;;;;;;13.91;75.13;100753.55;1757978;81;20952;-86
2022/05/27 03:55:44;;;;;;;8.75;4.40;;;;;;;13.99;74.65;100747.27;1722111;83;21005;-85
2022/05/27 03:58:16;;;;;;;5.85;3.85;;;;;;;14.08;74.22;100741.80;1722026;83;21377;-87
2022/05/27 04:00:42;;;;;;;4.40;4.00;;;;;;;14.31;73.32;100738.78;1722500;83;21179;-87
2022/05/27 04:03:10;;;;;;;4.12;3.70;;;;;;;14.45;72.81;100739.94;1722086;83;20837;-87
2022/05/27 04:05:38;;;;;;;5.80;4.42;;;;;;;14.45;72.81;100739.94;1722200;83;20931;-86
2022/05/27 04:08:06;;;;;;;7.58;3.70;;;;;;;14.59;71.88;100739.42;1722261;83;20880;-86
2022/05/27 04:10:33;;;;;;;3.95;3.58;;;;;;;14.77;71.56;100738.51;1722318;82;21421;-86
2022/05/27 04:13:00;;;;;;;4.47;3.47;;;;;;;14.96;70.81;100742.73;1722157;83;21156;-87
2022/05/27 04:15:26;;;;;;;4.70;3.60;;;;;;;15.26;70.27;100738.70;1722197;83;20927;-86
2022/05/27 04:17:53;;;;;;;4.30;3.90;;;;;;;15.74;69.30;100739.80;1722145;82;20888;-86
2022/05/27 04:20:20;;;;;;;4.33;3.42;;;;;;;16.31;67.61;100745.28;1717726;82;20928;-87
2022/05/27 04:22:46;;;;;;;6.05;4.67;;;;;;;16.90;65.92;100747.92;1752819;81;20928;-86
2022/05/27 04:25:13;;;;;;;4.12;3.15;;;;;;;17.46;64.24;100742.70;1753115;82;21812;-85
2022/05/27 04:27:41;;;;;;;4.92;2.95;;;;;;;17.99;62.46;100734.49;1753026;82;20880;-85
2022/05/27 04:30:10;;;;;;;3.35;3.05;;;;;;;18.51;60.82;100734.23;1752788;82;20947;-87
2022/05/27 04:32:39;;;;;;;3.35;2.55;;;;;;;19.00;59.79;100740.83;1753401;82;20968;-87
2022/05/27 04:35:06;;;;;;;4.83;3.20;;;;;;;19.49;58.15;100734.02;1753063;80;20908;-86
2022/05/27 04:37:33;;;;;;;3.90;2.62;;;;;;;19.91;57.00;100742.86;1716835;83;21154;-86
2022/05/27 04:40:00;;;;;;;2.90;2.62;;;;;;;20.29;55.94;100741.23;1716864;83;20887;-87
2022/05/27 04:42:27;;;;;;;4.00;3.12;;;;;;;20.68;54.93;100728.95;1716659;83;21500;-87
2022/05/27 04:44:54;;;;;;;5.12;2.75;;;;;;;21.05;53.96;100738.51;1716788;82;21342;-88
2022/05/27 04:47:20;;;;;;;3.05;2.40;;;;;;;21.43;53.21;100740.91;1716817;82;20868;-88
2022/05/27 04:49:51;;;;;;;3.10;2.25;;;;;;;21.77;52.31;100738.73;1716641;83;21476;-87
2022/05/27 04:52:24;;;;;;;2.77;2.42;;;;;;;22.06;50.73;100744.47;1716626;83;20979;-86
2022/05/27 04:54:51;;;;;;;2.47;2.27;;;;;;;22.30;50.18;100734.35;1716659;83;20931;-86
2022/05/27 04:57:21;;;;;;;3.20;2.22;;;;;;;22.58;49.17;100733.19;1716639;83;21526;-86
2022/05/27 04:59:49;;;;;;;4.70;1.47;;;;;;;22.87;48.33;100733.48;1716710;83;20974;-87
2022/05/27 05:02:20;;;;;;;1.57;1.47;;;;;;;23.19;47.19;100731.78;1716746;83;21807;-86
2022/05/27 05:04:48;;;;;;;4.28;2.02;;;;;;;23.47;45.97;100730.83;1716558;83;20892;-85
2022/05/27 05:07:16;;;;;;;4.15;1.37;;;;;;;23.76;45.26;100738.77;1716710;83;20971;-86
2022/05/27 05:09:43;;;;;;;4.53;1.72;;;;;;;24.03;44.68;100733.92;1716810;82;20903;-87
2022/05/27 05:12:11;;;;;;;1.87;1.77;;;;;;;24.33;44.07;100727.68;1733973;82;20893;-88
2022/05/27 05:14:39;;;;;;;1.65;1.55;;;;;;;24.66;43.36;100736.83;1752869;82;21159;-86
2022/05/27 05:17:07;;;;;;;5.78;1.98;;;;;;;24.96;42.75;100728.30;1752747;80;21485;-87
2022/05/27 05:19:34;;;;;;;3.27;1.60;;;;;;;25.21;42.22;100728.92;1754831;81;21393;-86
2022/05/27 05:22:01;;;;;;;2.22;2.02;;;;;;;25.45;41.85;100740.37;1758447;81;20912;-86
2022/05/27 05:24:28;;;;;;;3.58;2.02;;;;;;;25.72;41.27;100739.36;1760255;80;20915;-86
2022/05/27 05:26:56;;;;;;;4.33;2.12;;;;;;;25.90;40.56;100736.28;1761172;80;21092;-88
2022/05/27 05:29:23;;;;;;;4.40;2.67;;;;;;;26.12;40.23;100740.65;1760839;78;20865;-87
2022/05/27 05:31:49;;;;;;;3.12;2.65;;;;;;;26.35;39.58;100736.45;1760529;78;20873;-87
2022/05/27 05:34:16;;;;;;;5.00;3.10;;;;;;;26.49;38.57;100736.05;1760952;78;20952;-87
2022/05/27 05:36:43;;;;;;;3.33;2.45;;;;;;;26.64;38.11;100729.28;1760875;78;20893;-86
2022/05/27 05:39:09;;;;;;;2.90;2.60;;;;;;;26.80;37.99;100724.11;1760688;78;21075;-88
2022/05/27 05:41:38;;;;;;;4.37;2.75;;;;;;;27.01;37.97;100721.37;1760561;78;20940;-87
2022/05/27 05:44:08;;;;;;;5.30;3.55;;;;;;;27.29;37.49;100717.28;1760990;78;20900;-85
2022/05/27 05:46:37;;;;;;;4.42;3.25;;;;;;;27.49;36.85;100714.69;1761093;78;20955;-85
2022/05/27 05:49:05;;;;;;;5.62;3.10;;;;;;;27.65;36.49;100717.53;1760885;78;20967;-87
2022/05/27 05:51:33;;;;;;;3.33;2.08;;;;;;;27.89;36.11;100717.53;1761316;78;20913;-86
2022/05/27 05:54:00;;;;;;;4.42;2.58;;;;;;;28.13;35.39;100713.14;1761278;80;20896;-87
2022/05/27 05:56:31;;;;;;;6.42;2.05;;;;;;;28.28;34.87;100712.41;1761532;80;20928;-88
2022/05/27 05:58:57;;;;;;;2.65;2.00;;;;;;;28.46;34.90;100709.11;1761234;80;20869;-89
2022/05/27 06:01:24;;;;;;;2.98;2.05;;;;;;;28.72;35.12;100713.67;1760758;80;20904;-88
2022/05/27 06:03:51;;;;;;;4.22;2.22;;;;;;;29.00;34.83;100703.98;1761130;78;21094;-85
2022/05/27 06:06:19;;;;;;;5.72;2.77;;;;;;;29.25;34.26;100699.26;1761250;80;21162;-88
2022/05/27 06:08:46;;;;;;;8.38;2.98;;;;;;;29.45;33.67;100705.94;1761332;81;20999;-86
2022/05/27 06:11:12;;;;;;;5.67;2.20;;;;;;;29.58;33.06;100709.92;1761112;78;20948;-89
2022/05/27 06:13:40;;;;;;;10.32;9.23;;;;;;;29.69;33.06;100716.03;1759457;81;20896;-89
2022/05/27 06:16:09;;;;;;;4.20;2.70;;;;;;;29.82;32.67;100711.08;1758875;81;21120;-87
2022/05/27 06:18:37;;;;;;;5.65;2.60;;;;;;;29.93;32.66;100714.98;1758646;81;20963;-90
2022/05/27 06:21:04;;;;;;;4.22;2.37;;;;;;;30.01;32.40;100721.45;1758650;81;20880;-88
2022/05/27 06:23:31;;;;;;;3.37;2.05;;;;;;;30.17;32.30;100725.53;1758732;81;20904;-89
2022/05/27 06:26:06;;;;;;;3.33;3.00;;;;;;;30.34;32.13;100719.89;1758575;81;20971;-89
2022/05/27 06:36:54;;;;;;;4.53;3.12;;;;;;;30.49;31.24;100734.46;1758678;80;20996;-87
2022/05/27 06:39:21;;;;;;;5.62;3.00;;;;;;;30.50;31.49;100735.28;1758652;80;20924;-87
2022/05/27 06:41:48;;;;;;;5.45;4.20;;;;;;;30.61;31.50;100733.73;1758528;81;21251;-87
2022/05/27 06:44:15;;;;;;;7.95;3.80;;;;;;;30.78;31.26;100726.18;1758265;81;21066;-87
2022/05/27 06:46:43;;;;;;;4.10;3.37;;;;;;;30.97;31.04;100730.29;1758564;81;21417;-88
2022/05/27 06:49:10;;;;;;;9.60;4.03;;;;;;;31.13;30.85;100727.00;1758411;80;20927;-87
2022/05/27 06:51:38;;;;;;;7.28;6.17;;;;;;;31.29;30.85;100728.81;1758850;80;21436;-88
2022/05/27 06:54:05;;;;;;;13.18;7.45;;;;;;;31.42;30.00;100723.80;1758530;81;21926;-87
2022/05/27 06:56:41;;;;;;;11.00;8.53;;;;;;;31.32;29.75;100723.75;1758857;81;20881;-88
2022/05/27 06:59:07;;;;;;;10.43;5.78;;;;;;;31.28;29.97;100728.50;1758941;81;20904;-88
2022/05/27 07:01:35;;;;;;;6.95;3.72;;;;;;;31.29;29.66;100736.41;1759302;80;21002;-88
2022/05/27 07:04:02;;;;;;;9.10;2.85;;;;;;;31.31;30.18;100741.08;1758503;81;20952;-89
2022/05/27 07:06:33;;;;;;;4.83;2.98;;;;;;;31.34;30.02;100741.97;1758209;81;21205;-89
2022/05/27 07:09:03;;;;;;;2.58;1.77;;;;;;;31.40;30.14;100737.54;1758409;81;20916;-88
2022/05/27 07:11:29;;;;;;;6.47;3.33;;;;;;;31.57;29.74;100750.81;1758456;81;20916;-88
2022/05/27 07:13:57;;;;;;;4.03;2.90;;;;;;;31.69;29.38;100750.03;1758081;81;20940;-84
2022/05/27 07:16:26;;;;;;;5.70;4.45;;;;;;;31.74;29.69;100750.17;1758342;81;20873;-89
2022/05/27 07:18:54;;;;;;;7.10;4.60;;;;;;;31.80;29.10;100754.15;1758332;80;21461;-89
2022/05/27 07:21:20;;;;;;;11.30;6.33;;;;;;;31.87;29.12;100753.23;1752992;81;21385;-89
2022/05/27 07:23:53;;;;;;;9.30;7.33;;;;;;;31.93;29.57;100753.14;1758247;81;20845;-88
2022/05/27 07:26:22;;;;;;;11.33;6.95;;;;;;;32.09;29.12;100746.80;1758140;80;20927;-90
2022/05/27 07:28:49;;;;;;;11.90;7.65;;;;;;;32.21;28.94;100747.10;1758465;80;20932;-89
2022/05/27 07:31:17;;;;;;;10.72;7.55;;;;;;;32.29;28.99;100749.20;1758406;81;21214;-88
2022/05/27 07:33:45;;;;;;;12.98;7.40;;;;;;;32.30;28.73;100751.67;1758442;81;20928;-89
2022/05/27 07:36:12;;;;;;;9.05;7.03;;;;;;;32.33;29.16;100746.33;1760808;81;20845;-87
2022/05/27 07:38:39;;;;;;;9.90;6.10;;;;;;;32.41;28.77;100752.22;1760919;81;20947;-86
2022/05/27 07:41:07;;;;;;;9.45;6.25;;;;;;;32.45;28.35;100747.16;1760050;81;20967;-86
2022/05/27 07:43:34;;;;;;;9.15;6.10;;;;;;;32.48;28.77;100750.75;1723916;82;21155;-86
2022/05/27 07:46:01;;;;;;;9.10;6.00;;;;;;;32.56;28.18;100751.80;1722336;82;20888;-86
2022/05/27 07:48:27;;;;;;;8.13;4.67;;;;;;;32.67;27.97;100754.78;1696276;83;20931;-88
2022/05/27 07:50:54;;;;;;;7.90;3.65;;;;;;;32.73;28.12;100747.88;1722264;83;21433;-87
2022/05/27 07:53:22;;;;;;;5.37;3.00;;;;;;;32.81;27.75;100753.47;1722362;82;20879;-87
2022/05/27 07:55:49;;;;;;;5.42;3.50;;;;;;;32.80;26.99;100739.06;1722502;82;21911;-87
2022/05/27 07:58:15;;;;;;;5.97;3.90;;;;;;;32.75;27.07;100743.03;1722994;83;21403;-88
2022/05/27 08:00:43;;;;;;;6.75;4.80;;;;;;;32.83;26.69;100740.48;1722435;82;20919;-88
2022/05/27 08:03:10;;;;;;;8.15;5.12;;;;;;;32.77;26.85;100738.19;1722429;83;20887;-85
2022/05/27 08:05:39;;;;;;;9.20;5.12;;;;;;;32.72;26.96;100736.70;1722529;83;21420;-87
2022/05/27 08:08:06;;;;;;;8.43;6.28;;;;;;;32.79;27.15;100729.28;1722320;83;21973;-90
2022/05/27 08:10:35;;;;;;;7.80;4.85;;;;;;;32.90;26.97;100731.66;1722331;83;20989;-89
2022/05/27 08:13:04;;;;;;;6.78;4.17;;;;;;;33.03;27.04;100734.67;1722241;83;20923;-88
2022/05/27 08:15:31;;;;;;;5.15;4.08;;;;;;;33.12;26.74;100729.73;1722366;83;20963;-89
2022/05/27 08:17:58;;;;;;;4.28;3.72;;;;;;;33.15;26.41;100711.06;1722449;83;20935;-87
2022/05/27 08:20:29;;;;;;;4.67;4.08;;;;;;;33.23;26.26;100716.11;1722178;82;21928;-88
2022/05/27 08:22:57;;;;;;;4.67;3.87;;;;;;;33.22;26.07;100720.45;1716915;83;20876;-86
2022/05/27 08:25:24;;;;;;;5.97;3.50;;;;;;;33.28;26.18;100725.44;1753067;81;20889;-88
2022/05/27 08:27:52;;;;;;;4.47;2.17;;;;;;;33.35;25.57;100720.17;1753079;82;20939;-86
2022/05/27 08:30:28;;;;;;;4.17;2.35;;;;;;;33.39;25.30;100719.95;1752983;82;20892;-86
2022/05/27 08:32:56;;;;;;;6.47;1.87;;;;;;;33.44;25.41;100708.39;1716814;83;21361;-89
2022/05/27 08:38:14;;;;;;;3.47;2.00;;;;;;;33.69;25.48;100718.95;1717004;82;20972;-89
2022/05/27 08:40:49;;;;;;;7.45;2.15;;;;;;;33.69;25.10;100723.03;1716743;82;21472;-90
2022/05/27 08:43:48;;;;;;;2.50;1.60;;;;;;;33.64;24.86;100727.84;1716866;83;21006;-89
2022/05/27 08:46:41;;;;;;;3.67;2.17;;;;;;;33.50;24.75;100722.35;1680156;85;21210;-89
2022/05/27 08:49:12;;;;;;;4.95;1.67;;;;;;;33.40;25.05;100723.53;1663297;86;28368;-87
2022/05/27 08:51:57;;;;;;;3.92;1.82;;;;;;;33.34;25.03;100719.86;1654582;86;21015;-89
2022/05/27 08:54:31;;;;;;;2.72;0.88;;;;;;;33.35;24.94;100721.53;1718494;83;21044;-88
2022/05/27 08:59:57;;;;;;;3.30;1.65;;;;;;;33.61;25.21;100718.79;1694057;83;21573;-90
2022/05/27 09:02:57;;;;;;;3.45;2.65;;;;;;;33.79;24.75;100721.84;1718035;83;20878;-90
2022/05/27 09:05:43;;;;;;;4.60;3.20;;;;;;;33.89;24.79;100721.23;1718027;82;20913;-89
2022/05/27 09:08:17;;;;;;;4.70;3.52;;;;;;;33.98;25.11;100717.03;1717604;83;20969;-88
2022/05/27 09:11:11;;;;;;;4.17;3.27;;;;;;;34.02;24.40;100714.66;1717624;83;20921;-89
2022/05/27 09:13:49;;;;;;;7.37;2.67;;;;;;;33.95;24.54;100716.69;1695916;84;21885;-87
2022/05/27 09:16:21;;;;;;;6.78;3.47;;;;;;;33.76;25.21;100712.82;1695484;84;20986;-88
2022/05/27 09:19:11;;;;;;;3.37;2.55;;;;;;;33.72;24.89;100716.27;1696607;83;20975;-88
2022/05/27 09:22:21;;;;;;;3.58;2.67;;;;;;;33.61;24.39;100704.38;1694593;84;20975;-88
2022/05/27 09:25:17;;;;;;;4.10;2.60;;;;;;;33.51;24.79;100708.25;1710586;83;20908;-90
2022/05/27 09:28:21;;;;;;;4.28;2.60;;;;;;;33.49;24.56;100710.38;1710566;84;20869;-87
2022/05/27 09:30:50;;;;;;;4.20;2.30;;;;;;;33.42;24.31;100709.98;1710408;83;20963;-87
2022/05/27 09:33:19;;;;;;;3.08;1.47;;;;;;;33.36;24.32;100704.68;1710709;84;21011;-88
2022/05/27 09:35:53;;;;;;;5.12;2.55;;;;;;;33.38;24.28;100707.98;1710781;84;21031;-89
2022/05/27 09:38:30;;;;;;;4.03;2.50;;;;;;;33.36;24.71;100705.50;1708801;84;20944;-90
2022/05/27 09:41:23;;;;;;;3.85;2.27;;;;;;;33.35;24.78;100702.50;1710766;84;21997;-88
2022/05/27 09:43:57;;;;;;;3.30;1.90;;;;;;;33.43;24.57;100710.80;1710693;83;20948;-88
2022/05/27 09:46:28;;;;;;;2.65;2.42;;;;;;;33.51;24.39;100709.60;1710896;84;20932;-88
2022/05/27 09:48:57;;;;;;;3.90;2.45;;;;;;;33.55;24.47;100712.95;1733176;82;20913;-88
2022/05/27 09:51:30;;;;;;;4.40;3.15;;;;;;;33.58;24.45;100712.48;1745720;81;20928;-89
2022/05/27 09:54:29;;;;;;;3.83;2.22;;;;;;;33.59;24.71;100712.77;1745928;81;21193;-88
2022/05/27 09:57:02;;;;;;;4.20;2.80;;;;;;;33.62;23.78;100702.78;1745790;82;20940;-89
2022/05/27 09:59:39;;;;;;;6.03;2.98;;;;;;;33.52;23.77;100706.62;1745332;81;21379;-88
2022/05/27 10:02:33;;;;;;;3.35;3.10;;;;;;;33.36;23.89;100703.32;1745529;81;21426;-89
2022/05/27 10:05:05;;;;;;;4.30;3.27;;;;;;;33.21;23.82;100701.11;1709394;83;20845;-88
2022/05/27 10:07:42;;;;;;;2.08;1.80;;;;;;;33.08;24.20;100709.53;1710003;82;21097;-89
2022/05/27 10:10:28;;;;;;;7.25;2.10;;;;;;;33.15;24.09;100689.83;1709801;84;20876;-88
2022/05/27 10:13:15;;;;;;;2.75;2.55;;;;;;;33.20;23.93;100687.23;1709686;84;21698;-90
2022/05/27 10:15:42;;;;;;;2.00;1.42;;;;;;;33.22;24.06;100683.20;1709316;83;20884;-88
2022/05/27 10:18:22;;;;;;;4.53;2.33;;;;;;;33.24;24.09;100693.31;1687910;83;21085;-90
2022/05/27 10:20:59;;;;;;;2.92;2.12;;;;;;;33.26;23.91;100685.44;1709392;83;21851;-89
2022/05/27 10:23:35;;;;;;;2.90;1.77;;;;;;;33.39;23.85;100682.44;1709362;82;21043;-90
2022/05/27 10:26:26;;;;;;;3.83;1.95;;;;;;;33.55;23.71;100680.83;1745279;81;20906;-90
2022/05/27 10:29:13;;;;;;;5.55;1.12;;;;;;;33.62;23.92;100683.74;1745305;81;20948;-89
2022/05/27 10:31:54;;;;;;;1.85;1.35;;;;;;;33.60;23.51;100676.90;1745269;81;20928;-90
2022/05/27 10:34:45;;;;;;;3.10;1.37;;;;;;;33.49;23.56;100670.95;1745687;82;21227;-90
2022/05/27 10:37:45;;;;;;;1.52;1.20;;;;;;;33.41;23.92;100668.06;1745617;80;20928;-89
2022/05/27 10:40:56;;;;;;;2.30;1.30;;;;;;;33.33;23.83;100665.21;1709827;83;21386;-90
2022/05/27 10:43:44;;;;;;;3.87;2.02;;;;;;;33.20;23.47;100671.75;1709394;84;20932;-90
2022/05/27 10:46:15;;;;;;;3.58;1.67;;;;;;;33.08;23.64;100655.17;1709155;84;21425;-89
2022/05/27 10:49:16;;;;;;;7.05;2.33;;;;;;;33.25;23.94;100665.59;1709400;84;21927;-91
2022/05/27 10:52:17;;;;;;;2.58;1.72;;;;;;;33.20;24.00;100651.91;1623498;88;21623;-88
2022/05/27 10:55:14;;;;;;;2.67;1.85;;;;;;;33.11;23.99;100656.07;1627321;87;21434;-89
2022/05/27 11:04:42;;;;;;;2.00;1.70;;;;;;;33.11;23.79;100649.28;1673487;85;21314;-89
2022/05/27 11:07:20;;;;;;;3.70;1.82;;;;;;;33.14;23.21;100643.34;1673118;85;21024;-90
2022/05/27 11:10:23;;;;;;;4.45;2.42;;;;;;;33.08;23.24;100639.69;1673779;85;20960;-90
2022/05/27 11:16:30;;;;;;;2.87;2.05;;;;;;;32.81;23.93;100627.15;1673065;85;21064;-90
2022/05/27 11:19:52;;;;;;;1.92;1.40;;;;;;;32.74;23.70;100631.36;1673224;85;21146;-90
2022/05/27 11:26:12;;;;;;;3.20;2.00;;;;;;;32.27;24.96;100631.91;1652443;82;20951;-89
2022/05/27 11:28:50;;;;;;;5.20;1.95;;;;;;;32.00;24.98;100630.45;1708755;82;20891;-91
2022/05/27 11:31:50;;;;;;;5.60;2.20;;;;;;;31.68;25.21;100627.16;1728943;81;20911;-88
2022/05/27 11:36:48;;;;;;;2.83;2.00;;;;;;;31.27;25.89;100615.21;1817254;79;22660;-88
2022/05/27 11:39:47;;;;;;;5.47;2.08;;;;;;;30.93;26.41;100618.88;1720820;83;21015;-88
2022/05/27 11:42:52;;;;;;;3.05;2.00;;;;;;;30.80;26.73;100612.23;1755062;81;21279;-89
2022/05/27 11:45:23;;;;;;;4.30;2.80;;;;;;;30.60;26.40;100617.05;1742652;81;20864;-89
2022/05/27 11:48:10;;;;;;;52.03;46.88;;;;;;;30.18;26.66;100614.91;1755112;81;20905;-90
2022/05/27 11:51:20;;;;;;;8.63;4.67;;;;;;;29.88;27.71;100617.44;1756130;81;20940;-87
2022/05/27 11:54:21;;;;;;;7.20;3.08;;;;;;;29.62;28.50;100614.39;1755810;81;20940;-89
2022/05/27 11:57:10;;;;;;;4.33;3.58;;;;;;;29.23;28.26;100612.20;1756612;81;20897;-87
2022/05/27 11:59:43;;;;;;;5.33;2.75;;;;;;;28.96;28.52;100610.11;1722399;81;20963;-88
2022/05/27 12:02:27;;;;;;;5.55;2.58;;;;;;;28.78;28.63;100612.97;1755988;81;20900;-86
2022/05/27 12:05:13;;;;;;;13.80;5.22;;;;;;;28.63;29.00;100603.76;1755105;81;21027;-87
2022/05/27 12:07:57;;;;;;;3.47;1.22;;;;;;;28.51;29.24;100602.77;1755181;81;20892;-86
2022/05/27 12:10:32;;;;;;;7.22;1.42;;;;;;;28.38;28.54;100592.79;1754971;81;21144;-86
2022/05/27 12:13:17;;;;;;;10.10;2.20;;;;;;;28.17;27.99;100593.02;1755283;81;20924;-86
2022/05/27 12:15:53;;;;;;;3.17;1.30;;;;;;;28.04;28.20;100592.52;1755213;81;20979;-88
2022/05/27 12:18:34;;;;;;;12.85;3.22;;;;;;;28.01;28.70;100593.74;1755140;81;20868;-88
2022/05/27 12:21:05;;;;;;;8.23;1.92;;;;;;;27.96;29.15;100594.89;1733709;81;20857;-91
2022/05/27 12:23:32;;;;;;;8.13;2.85;;;;;;;27.85;28.89;100594.16;1755489;81;21251;-91
2022/05/27 12:26:01;;;;;;;1.70;0.88;;;;;;;27.67;28.84;100601.47;1675265;81;20888;-88
2022/05/27 12:28:31;;;;;;;2.65;0.60;;;;;;;27.48;29.16;100596.37;1755293;81;21019;-89
2022/05/27 12:31:00;;;;;;;3.45;0.40;;;;;;;27.38;29.43;100585.16;1755371;81;20940;-90
2022/05/27 12:33:28;;;;;;;3.12;0.33;;;;;;;27.29;29.06;100584.50;1755368;81;21416;-86
2022/05/27 12:36:02;;;;;;;3.05;0.55;;;;;;;27.16;29.09;100583.91;1749739;81;21163;-86